Flight Track Log - Related Links

Times and Time Zones

All times are in EDT time to prevent confusion due to time zone crossing. See the ANT507 flight status page for this flight to view local times or setup timezone preferences in your user account.

Time Position Orientation Groundspeed Altitude Reporting Facility
EDT Latitude Longitude Course Direction KTS MPH feet Rate Location/Type
Fri 12:34:00 PM 60.3176 -133.7201 122° Southeast  Level Estimated
Fri 12:35:00 PM 60.2421 -133.5587 133° Southeast  Level FlightAware Approximate
Fri 12:36:00 PM 60.1663 -133.3980 133° Southeast  Level FlightAware Approximate
Fri 12:37:00 PM 60.1091 -133.2092 126° Southeast  Level Estimated
Fri 12:38:00 PM 60.0350 -133.0460 132° Southeast  Level FlightAware Approximate
Fri 12:39:00 PM 59.9608 -132.8835 132° Southeast  Level FlightAware Approximate
Fri 12:40:00 PM 59.9031 -132.6965 126° Southeast  Level Estimated
Fri 12:41:00 PM 59.8346 -132.5249 128° Southeast  Level FlightAware Approximate
Fri 12:42:00 PM 59.7660 -132.3540 129° Southeast  Level FlightAware Approximate
Fri 12:43:00 PM 59.6970 -132.1838 129° Southeast  Level FlightAware Approximate
Fri 12:44:00 PM 59.6279 -132.0143 129° Southeast  Level FlightAware Approximate
Fri 12:45:00 PM 59.5586 -131.8455 129° Southeast  Level FlightAware Approximate
Fri 12:46:00 PM 59.4890 -131.6774 129° Southeast  Level FlightAware Approximate
Fri 12:47:00 PM 59.4192 -131.5100 129° Southeast  Level FlightAware Approximate
Fri 12:48:00 PM 59.3492 -131.3432 129° Southeast  Level FlightAware Approximate
Fri 12:49:00 PM 59.2790 -131.1772 130° Southeast  Level FlightAware Approximate
Fri 12:50:00 PM 59.2086 -131.0118 130° Southeast  Level FlightAware Approximate
Fri 12:51:00 PM 59.1492 -130.8310 123° Southeast  Level Estimated
Fri 12:52:00 PM 59.0834 -130.6592 127° Southeast  Level FlightAware Approximate
Fri 12:53:00 PM 59.0174 -130.4881 127° Southeast  Level FlightAware Approximate
Fri 12:54:00 PM 58.9511 -130.3176 127° Southeast  Level FlightAware Approximate
Fri 12:55:00 PM 58.8846 -130.1478 127° Southeast  Level FlightAware Approximate
Fri 12:56:00 PM 58.8243 -129.9698 124° Southeast  Level Estimated
Fri 12:57:00 PM 58.7622 -129.7944 124° Southeast  Level FlightAware Approximate
Fri 12:58:00 PM 58.6999 -129.6197 124° Southeast  Level FlightAware Approximate
Fri 12:59:00 PM 58.6374 -129.4455 125° Southeast  Level FlightAware Approximate
Fri 01:00:00 PM 58.5746 -129.2720 125° Southeast  Level FlightAware Approximate
Fri 01:01:00 PM 58.5117 -129.0991 125° Southeast  Level FlightAware Approximate
Fri 01:02:00 PM 58.4484 -128.9268 125° Southeast  Level FlightAware Approximate
Fri 01:03:00 PM 58.3850 -128.7552 125° Southeast  Level FlightAware Approximate
Fri 01:04:00 PM 58.3213 -128.5841 125° Southeast  Level FlightAware Approximate
Fri 01:05:00 PM 58.2574 -128.4137 125° Southeast  Level FlightAware Approximate
Fri 01:06:00 PM 58.1933 -128.2439 126° Southeast  Level FlightAware Approximate
Fri 01:07:00 PM 58.1289 -128.0747 126° Southeast  Level FlightAware Approximate
Fri 01:08:00 PM 58.0643 -127.9061 126° Southeast  Level FlightAware Approximate
Fri 01:09:00 PM 57.9995 -127.7381 126° Southeast  Level FlightAware Approximate
Fri 01:10:00 PM 57.9345 -127.5708 126° Southeast  Level FlightAware Approximate
Fri 01:11:00 PM 57.8692 -127.4040 126° Southeast  Level FlightAware Approximate
Fri 01:12:00 PM 57.8054 -127.2356 127° Southeast  Level Estimated
Fri 01:13:00 PM 57.7399 -127.0698 126° Southeast  Level FlightAware Approximate
Fri 01:14:00 PM 57.6742 -126.9046 127° Southeast  Level FlightAware Approximate
Fri 01:15:00 PM 57.6083 -126.7399 127° Southeast  Level FlightAware Approximate
Fri 01:16:00 PM 57.5422 -126.5759 127° Southeast  Level FlightAware Approximate
Fri 01:17:00 PM 57.4758 -126.4125 127° Southeast  Level FlightAware Approximate
Fri 01:18:00 PM 57.4093 -126.2496 127° Southeast  Level FlightAware Approximate
Fri 01:19:00 PM 57.3425 -126.0873 127° Southeast  Level FlightAware Approximate
Fri 01:20:00 PM 57.2771 -125.9235 127° Southeast  Level Estimated
Fri 01:20:46 PM 57.1500 -125.7500 127° Southeast 430 495 37,000  Level Edmonton Center
Fri 01:21:00 PM 57.2116 -125.7601 126° Southeast  Level FlightAware Approximate
Fri 01:21:46 PM 57.0833 -125.6000 129° Southeast 400 460 37,000  Level Edmonton Center
Fri 01:22:00 PM 57.1460 -125.5972 127° Southeast  Level FlightAware Approximate
Fri 01:22:46 PM 57.0333 -125.4500 121° Southeast 400 460 37,000  Level Edmonton Center
Fri 01:23:00 PM 57.0801 -125.4349 127° Southeast  Level FlightAware Approximate
Fri 01:23:46 PM 56.9500 -125.2667 130° Southeast 400 460 37,000  Level Edmonton Center
Fri 01:24:00 PM 57.0140 -125.2731 127° Southeast  Level FlightAware Approximate
Fri 01:24:46 PM 56.8833 -125.1000 126° Southeast 390 449 37,000  Level Edmonton Center
Fri 01:25:00 PM 56.9477 -125.1120 127° Southeast  Level FlightAware Approximate
Fri 01:25:46 PM 56.8167 -124.9333 126° Southeast 390 449 37,000  Level Edmonton Center
Fri 01:26:00 PM 56.8811 -124.9514 127° Southeast  Level FlightAware Approximate
Fri 01:26:46 PM 56.7500 -124.7667 126° Southeast 390 449 37,000  Level Edmonton Center
Fri 01:27:46 PM 56.6833 -124.6333 132° Southeast 390 449 37,000  Level Edmonton Center
Fri 01:28:46 PM 56.6167 -124.4667 126° Southeast 400 460 37,000  Level Edmonton Center
Fri 01:29:46 PM 56.5500 -124.3167 129° Southeast 400 460 37,000  Level Edmonton Center
Fri 01:30:46 PM 56.4667 -124.1333 129° Southeast 400 460 37,000  Level Edmonton Center
Fri 01:31:46 PM 56.4167 -123.9833 121° Southeast 400 460 37,000  Level Edmonton Center
Fri 01:32:46 PM 56.3500 -123.8167 126° Southeast 390 449 37,000  Level Edmonton Center
Fri 01:33:46 PM 56.2833 -123.6667 129° Southeast 390 449 37,000  Level Edmonton Center
Fri 01:34:46 PM 56.2000 -123.5000 132° Southeast 390 449 37,000  Level Edmonton Center
Fri 01:35:46 PM 56.1333 -123.3667 132° Southeast 390 449 37,000  Level Edmonton Center
Fri 01:36:46 PM 56.0833 -123.2167 121° Southeast 390 449 37,000  Level Edmonton Center
Fri 01:37:46 PM 56.0000 -123.0500 132° Southeast 390 449 37,000  Level Edmonton Center
Fri 01:38:46 PM 55.9333 -122.9000 128° Southeast 390 449 37,000  Level Edmonton Center
Fri 01:39:46 PM 55.8667 -122.7333 125° Southeast 390 449 37,000  Level Edmonton Center
Fri 01:40:46 PM 55.7833 -122.6000 138° Southeast 390 449 37,000  Level Edmonton Center
Fri 01:41:46 PM 55.7167 -122.4500 128° Southeast 390 449 37,000  Level Edmonton Center
Fri 01:42:46 PM 55.6500 -122.3000 128° Southeast 390 449 37,000  Level Edmonton Center
Fri 01:43:46 PM 55.6000 -122.1500 120° Southeast 390 449 37,000  Level Edmonton Center
Fri 01:44:46 PM 55.5167 -121.9833 131° Southeast 390 449 37,000  Level Edmonton Center
Fri 01:45:46 PM 55.4500 -121.8667 135° Southeast 390 449 37,000  Level Edmonton Center
Fri 01:46:46 PM 55.3833 -121.7000 125° Southeast 390 449 37,000  Level Edmonton Center
Fri 01:47:46 PM 55.3167 -121.5500 128° Southeast 390 449 37,000  Level Edmonton Center
Fri 01:48:46 PM 55.2500 -121.4000 128° Southeast 390 449 37,000  Level Edmonton Center
Fri 01:49:46 PM 55.1667 -121.2500 134° Southeast 390 449 37,000  Level Edmonton Center
Fri 01:50:46 PM 55.1000 -121.1333 135° Southeast 390 449 37,000  Level Edmonton Center
Fri 01:51:46 PM 55.0167 -120.9500 128° Southeast 400 460 37,000  Level Edmonton Center
Fri 01:52:46 PM 54.9500 -120.8167 131° Southeast 400 460 37,000  Level Edmonton Center
Fri 01:53:46 PM 54.8667 -120.6667 134° Southeast 400 460 37,000  Level Edmonton Center
Fri 01:54:46 PM 54.8000 -120.5167 128° Southeast 400 460 37,000  Level Edmonton Center
Fri 01:55:46 PM 54.7333 -120.3833 131° Southeast 400 460 37,000  Level Edmonton Center
Fri 01:56:46 PM 54.6500 -120.2167 131° Southeast 410 472 37,000  Level Edmonton Center
Fri 01:57:46 PM 54.5833 -120.0833 131° Southeast 410 472 37,000  Level Edmonton Center
Fri 01:58:46 PM 54.5000 -119.9333 134° Southeast 410 472 37,000  Level Edmonton Center
Fri 01:59:46 PM 54.4333 -119.7833 127° Southeast 410 472 37,000  Level Edmonton Center
Fri 02:00:46 PM 54.3500 -119.6333 134° Southeast 410 472 37,000  Level Edmonton Center
Fri 02:01:46 PM 54.2833 -119.4833 127° Southeast 410 472 37,000  Level Edmonton Center
Fri 02:02:46 PM 54.1833 -119.3333 139° Southeast 410 472 37,000  Level Edmonton Center
Fri 02:03:46 PM 54.1167 -119.2000 130° Southeast 410 472 37,000  Level Edmonton Center
Fri 02:04:46 PM 54.0333 -119.0500 133° Southeast 410 472 37,000  Level Edmonton Center
Fri 02:05:46 PM 53.9667 -118.9000 127° Southeast 410 472 37,000  Level Edmonton Center
Fri 02:06:46 PM 53.8833 -118.7667 137° Southeast 410 472 37,000  Level Edmonton Center
Fri 02:07:46 PM 53.8000 -118.6167 133° Southeast 410 472 37,000  Level Edmonton Center
Fri 02:08:46 PM 53.7333 -118.4667 127° Southeast 410 472 37,000  Level Edmonton Center
Fri 02:09:46 PM 53.6667 -118.3333 130° Southeast 410 472 37,000  Level Edmonton Center
Fri 02:10:46 PM 53.5667 -118.1833 138° Southeast 410 472 37,000  Level Edmonton Center
Fri 02:11:46 PM 53.5000 -118.0500 130° Southeast 410 472 37,000  Level Edmonton Center
Fri 02:12:46 PM 53.4167 -117.8833 130° Southeast 410 472 37,000  Level Edmonton Center
Fri 02:13:46 PM 53.3333 -117.7667 140° Southeast 410 472 37,000  Level Edmonton Center
Fri 02:14:46 PM 53.2667 -117.6000 124° Southeast 410 472 37,000  Level Edmonton Center
Fri 02:15:46 PM 53.1833 -117.4667 136° Southeast 410 472 37,000  Level Edmonton Center
Fri 02:16:46 PM 53.1000 -117.3167 133° Southeast 420 483 37,000  Level Edmonton Center
Fri 02:17:46 PM 53.0167 -117.1833 136° Southeast 420 483 37,000  Level Edmonton Center
Fri 02:18:46 PM 52.9500 -117.0500 130° Southeast 410 472 37,000  Level Edmonton Center
Fri 02:19:46 PM 52.8667 -116.9167 136° Southeast 420 483 37,000  Level Edmonton Center
Fri 02:20:46 PM 52.7667 -116.7667 138° Southeast 420 483 37,000  Level Edmonton Center
Fri 02:21:46 PM 52.7000 -116.6333 129° Southeast 420 483 37,000  Level Edmonton Center
Fri 02:22:46 PM 52.6167 -116.5000 136° Southeast 420 483 37,000  Level Edmonton Center
Fri 02:23:46 PM 52.5333 -116.3333 129° Southeast 420 483 37,000  Level Edmonton Center
Fri 02:24:46 PM 52.4500 -116.2000 136° Southeast 420 483 37,000  Level Edmonton Center
Fri 02:25:46 PM 52.3667 -116.0667 136° Southeast 420 483 37,000  Level Edmonton Center
Fri 02:26:46 PM 52.2833 -115.9333 136° Southeast 420 483 37,000 -300 Level Edmonton Center
Fri 02:27:46 PM 52.2000 -115.8000 136° Southeast 420 483 36,400 -1,950 Descending Edmonton Center
Fri 02:28:46 PM 52.1167 -115.6667 135° Southeast 420 483 33,100 -3,400 Descending Edmonton Center
Fri 02:29:46 PM 52.0167 -115.5333 141° Southeast 430 495 29,600 -3,600 Descending Edmonton Center
Fri 02:30:46 PM 51.9333 -115.3833 132° Southeast 440 506 25,900 -3,300 Descending Edmonton Center
Fri 02:31:46 PM 51.8667 -115.2500 129° Southeast 430 495 23,000 -2,850 Descending Edmonton Center
Fri 02:32:46 PM 51.7667 -115.1167 140° Southeast 420 483 20,200 -2,900 Descending Edmonton Center
Fri 02:33:46 PM 51.7000 -114.9833 129° Southeast 410 472 17,200 -2,850 Descending Edmonton Center
Fri 02:34:46 PM 51.6333 -114.8667 133° Southeast 390 449 14,500 -2,300 Descending Edmonton Center
Fri 02:35:46 PM 51.5500 -114.7333 135° Southeast 380 437 12,600 -1,350 Descending Edmonton Center
Fri 02:36:46 PM 51.4833 -114.6333 137° Southeast 320 368 11,800 -1,150 Descending Edmonton Center
Fri 02:37:46 PM 51.4167 -114.5667 148° Southeast 300 345 10,300 -1,550 Descending Edmonton Center
Fri 02:38:46 PM 51.3333 -114.4667 143° Southeast 300 345 8,700 -1,450 Descending Edmonton Center
Fri 02:39:46 PM 51.2833 -114.4000 140° Southeast 290 334 7,400 -1,100 Descending Edmonton Center
Fri 02:40:46 PM 51.2167 -114.3333 148° Southeast 270 311 6,500 -450 Descending Edmonton Center
Fri 02:41:46 PM 51.1667 -114.2667 140° Southeast 220 253 6,500 -600 Level Edmonton Center
Fri 02:42:46 PM 51.1333 -114.1833 122° Southeast 210 242 5,300 -967 Descending Edmonton Center
Fri 02:44:46 PM 51.1000 -114.0667 114° Southeast 140 161 3,600 -850 Descending Edmonton Center

Login

Don't have an account? Register now (free) for customized features, flight alerts, and more!